Time;durP1;ratioP1;P1;durP2;ratioP2;P2;SDS_P1;SDS_P2;PMS_P1;PMS_P2;Temp;Humidity;BMP_temperature;BMP_pressure;BME280_temperature;BME280_humidity;BME280_pressure;Samples;Min_cycle;Max_cycle;Signal;HPM_P1;HPM_P2
2022/05/20 00:00:31;;;;;;;110.10;10.70;;;;;;;10.71;100.00;163365.09;4991151;28;20092;-61
2022/05/20 00:02:57;;;;;;;138.15;13.80;;;;;;;10.61;100.00;163339.44;4992418;28;20022;-61
2022/05/20 00:05:23;;;;;;;66.03;15.00;;;;;;;10.57;100.00;163327.28;4991398;28;20057;-61
2022/05/20 00:07:49;;;;;;;187.15;14.77;;;;;;;10.48;100.00;163305.69;4990851;28;20057;-61
2022/05/20 00:10:15;;;;;;;121.10;15.45;;;;;;;10.38;100.00;163278.72;4991336;28;20079;-61
2022/05/20 00:12:42;;;;;;;113.25;12.60;;;;;;;10.30;100.00;163257.09;4992566;28;20427;-61
2022/05/20 00:15:09;;;;;;;199.10;20.33;;;;;;;10.23;100.00;163239.53;4992698;28;20022;-61
2022/05/20 00:17:35;;;;;;;51.73;12.17;;;;;;;10.20;100.00;163230.06;4991204;28;20069;-62
2022/05/20 00:20:02;;;;;;;32.05;14.25;;;;;;;10.15;100.00;163219.28;4992675;28;20026;-62
2022/05/20 00:22:27;;;;;;;35.58;19.38;;;;;;;9.96;100.00;163168.00;4984806;28;20031;-62
2022/05/20 00:27:36;;;;;;;15.68;14.15;;;;;;;10.12;100.00;163211.19;4971823;28;20149;-62
2022/05/20 00:30:02;;;;;;;19.98;17.20;;;;;;;10.12;100.00;163211.19;4972976;28;20026;-61
2022/05/20 00:32:27;;;;;;;32.00;11.55;;;;;;;10.11;100.00;163208.47;4971559;28;20529;-63
2022/05/20 00:34:52;;;;;;;107.10;17.05;;;;;;;10.04;100.00;163189.59;4972984;28;20019;-60
2022/05/20 00:37:18;;;;;;;19.67;17.83;;;;;;;10.03;100.00;163186.88;4972050;28;20521;-61
2022/05/20 00:39:43;;;;;;;36.55;11.25;;;;;;;10.01;100.00;163181.53;4972809;28;20034;-61
2022/05/20 00:42:18;;;;;;;148.93;10.10;;;;;;;9.94;100.00;163162.63;4971411;28;20192;-61
2022/05/20 00:44:44;;;;;;;60.42;11.98;;;;;;;9.68;100.00;163096.47;4987267;28;20378;-61
2022/05/20 00:47:12;;;;;;;18.73;13.98;;;;;;;9.56;100.00;163062.78;4971478;28;20043;-61
2022/05/20 00:49:40;;;;;;;23.08;20.20;;;;;;;9.75;100.00;163114.03;4973114;28;20031;-61
2022/05/20 00:52:11;;;;;;;207.63;17.20;;;;;;;9.72;100.00;163105.91;4990395;28;20038;-62
2022/05/20 00:54:43;;;;;;;62.85;19.52;;;;;;;9.67;100.00;163092.44;4992112;28;20083;-62
2022/05/20 00:57:37;;;;;;;22.85;15.68;;;;;;;9.66;100.00;163091.13;4990823;28;20042;-62
2022/05/20 01:00:16;;;;;;;170.35;15.93;;;;;;;9.64;100.00;163084.38;4991252;28;20133;-62
2022/05/20 01:02:42;;;;;;;261.70;19.92;;;;;;;9.64;100.00;163085.72;4990341;28;20512;-62
2022/05/20 01:05:18;;;;;;;136.38;18.42;;;;;;;9.64;100.00;163084.38;4983813;28;20097;-62
2022/05/20 01:07:44;;;;;;;50.38;16.92;;;;;;;9.67;100.00;163092.44;4970713;28;20041;-62
2022/05/20 01:10:10;;;;;;;83.43;24.58;;;;;;;9.71;100.00;163103.25;4972486;28;20030;-61
2022/05/20 01:12:35;;;;;;;109.90;22.42;;;;;;;9.68;100.00;163095.16;4970655;28;20525;-61
2022/05/20 01:15:03;;;;;;;124.38;29.08;;;;;;;9.79;100.00;163124.81;4972082;28;20041;-61
2022/05/20 01:17:29;;;;;;;68.47;30.33;;;;;;;9.82;100.00;163132.94;4970926;28;20130;-61
2022/05/20 01:19:56;;;;;;;48.03;28.90;;;;;;;9.88;100.00;163146.41;4978959;28;20037;-61
2022/05/20 01:22:40;;;;;;;97.65;28.52;;;;;;;9.89;100.00;163149.09;4989686;28;20054;-61
2022/05/20 01:25:09;;;;;;;55.53;32.58;;;;;;;9.87;100.00;163143.69;4981681;28;20046;-62
2022/05/20 01:27:42;;;;;;;53.03;35.60;;;;;;;9.68;100.00;163095.16;4970357;28;20066;-61
2022/05/20 01:30:12;;;;;;;54.38;39.17;;;;;;;9.90;100.00;163153.19;4971923;28;20022;-62
2022/05/20 01:32:38;;;;;;;73.68;43.28;;;;;;;9.95;100.00;163166.66;4971263;28;20529;-62
2022/05/20 01:35:08;;;;;;;56.03;44.17;;;;;;;9.87;100.00;163143.69;4972146;28;20019;-62
2022/05/20 01:37:33;;;;;;;43.72;39.08;;;;;;;10.02;100.00;163184.19;4970107;28;20268;-61
2022/05/20 01:39:59;;;;;;;65.25;44.95;;;;;;;10.03;100.00;163186.88;4972107;28;20467;-62
2022/05/20 01:42:32;;;;;;;107.57;43.20;;;;;;;10.03;100.00;163186.88;4971256;28;20474;-59
2022/05/20 01:45:04;;;;;;;61.10;35.20;;;;;;;10.01;100.00;163181.53;4980264;28;20033;-59
2022/05/20 01:47:49;;;;;;;48.65;31.30;;;;;;;9.92;100.00;163157.22;4989821;28;20093;-61
2022/05/20 01:50:31;;;;;;;38.13;32.38;;;;;;;9.88;100.00;163147.78;4991003;28;20486;-62
2022/05/20 01:53:07;;;;;;;56.58;34.20;;;;;;;9.85;100.00;163139.66;4988875;28;20088;-62
2022/05/20 01:55:50;;;;;;;47.80;35.72;;;;;;;9.87;100.00;163143.69;4989795;28;20037;-62
2022/05/20 01:58:25;;;;;;;42.67;35.53;;;;;;;9.71;100.00;163101.91;4990178;28;20031;-62
2022/05/20 02:00:55;;;;;;;53.05;31.77;;;;;;;9.86;100.00;163142.38;4989517;28;20047;-62
2022/05/20 02:03:34;;;;;;;56.53;32.00;;;;;;;9.83;100.00;163134.25;4991081;28;20042;-62
2022/05/20 02:06:09;;;;;;;46.13;35.33;;;;;;;9.81;100.00;163130.22;4989424;28;20074;-62
2022/05/20 02:08:51;;;;;;;42.78;38.13;;;;;;;9.81;100.00;163128.88;4982492;28;20043;-62
2022/05/20 02:11:29;;;;;;;57.08;37.03;;;;;;;9.82;100.00;163131.59;4970278;28;20047;-62
2022/05/20 02:14:05;;;;;;;64.40;40.05;;;;;;;9.87;100.00;163143.69;4971005;28;20033;-62
2022/05/20 02:16:38;;;;;;;49.60;29.35;;;;;;;9.82;100.00;163132.94;4971598;28;20414;-62
2022/05/20 02:19:10;;;;;;;59.63;31.05;;;;;;;9.78;100.00;163122.16;4975589;28;20027;-62
2022/05/20 02:21:40;;;;;;;33.83;28.30;;;;;;;9.75;100.00;163114.03;4973567;28;20042;-62
2022/05/20 02:24:10;;;;;;;53.15;30.17;;;;;;;9.70;100.00;163100.56;4989122;28;20030;-62
2022/05/20 02:26:47;;;;;;;33.63;29.52;;;;;;;9.67;100.00;163093.81;5008212;28;20063;-62
2022/05/20 02:29:16;;;;;;;54.90;35.78;;;;;;;9.68;100.00;163095.16;4994491;28;20108;-61
2022/05/20 02:31:49;;;;;;;45.10;33.53;;;;;;;9.71;100.00;163103.25;4993122;28;20042;-61
2022/05/20 02:34:14;;;;;;;37.50;33.55;;;;;;;9.74;100.00;163111.34;4994610;28;20026;-61
2022/05/20 02:36:40;;;;;;;66.07;33.10;;;;;;;9.79;100.00;163124.81;4992759;28;20434;-61
2022/05/20 02:39:15;;;;;;;33.05;29.50;;;;;;;9.81;100.00;163130.22;4978098;28;20128;-62
2022/05/20 02:41:43;;;;;;;49.08;37.60;;;;;;;9.86;100.00;163141.03;4973713;28;20474;-62
2022/05/20 02:44:08;;;;;;;56.78;34.78;;;;;;;9.91;100.00;163154.50;4974750;28;20038;-62
2022/05/20 02:46:33;;;;;;;42.60;28.83;;;;;;;9.91;100.00;163155.84;4973479;28;20039;-62
2022/05/20 02:48:59;;;;;;;82.10;34.10;;;;;;;9.87;100.00;163145.06;4975035;28;20073;-62
2022/05/20 02:51:24;;;;;;;61.10;31.27;;;;;;;9.91;100.00;163154.50;4983503;28;20050;-61
2022/05/20 02:53:49;;;;;;;63.72;30.42;;;;;;;9.90;100.00;163151.81;4994147;28;20030;-62
2022/05/20 02:56:15;;;;;;;89.90;32.28;;;;;;;9.89;100.00;163149.09;4992949;28;20034;-61
2022/05/20 03:04:11;;;;;;;58.10;33.75;;;;;;;9.89;100.00;163149.09;4994197;28;20046;-61
2022/05/20 03:06:44;;;;;;;62.20;30.52;;;;;;;9.89;100.00;163149.09;4977590;28;20113;-61
2022/05/20 03:09:12;;;;;;;109.03;34.85;;;;;;;9.88;100.00;163147.78;4974704;28;20026;-61
2022/05/20 03:11:41;;;;;;;88.45;33.92;;;;;;;9.84;100.00;163138.34;4973070;28;20035;-61
2022/05/20 03:14:09;;;;;;;88.50;32.90;;;;;;;9.82;100.00;163132.94;4974125;28;20035;-62
2022/05/20 03:16:36;;;;;;;59.60;33.00;;;;;;;9.82;100.00;163132.94;4973045;28;20121;-62
2022/05/20 03:19:01;;;;;;;56.60;33.05;;;;;;;9.82;100.00;163131.59;4974593;28;20062;-62
2022/05/20 03:21:27;;;;;;;57.50;36.70;;;;;;;9.82;100.00;163132.94;4982022;28;20061;-62
2022/05/20 03:23:53;;;;;;;76.82;37.30;;;;;;;9.84;100.00;163138.34;4974160;28;20034;-62
2022/05/20 03:26:19;;;;;;;92.57;37.97;;;;;;;9.71;100.00;163103.25;4972909;28;20054;-62
2022/05/20 03:28:45;;;;;;;49.78;35.72;;;;;;;9.86;100.00;163142.38;4972786;28;20451;-62
2022/05/20 03:31:12;;;;;;;51.22;35.22;;;;;;;9.88;100.00;163146.41;4972941;28;20067;-62
2022/05/20 03:33:38;;;;;;;40.42;36.10;;;;;;;9.87;100.00;163143.69;4974017;28;20023;-62
2022/05/20 03:36:05;;;;;;;77.10;36.20;;;;;;;9.81;100.00;163130.22;4975405;28;20074;-62
2022/05/20 03:38:30;;;;;;;40.97;34.08;;;;;;;9.77;100.00;163119.44;4993510;28;20044;-63
2022/05/20 03:40:56;;;;;;;45.70;40.67;;;;;;;9.79;100.00;163123.47;4991865;28;20050;-62
2022/05/20 03:43:22;;;;;;;45.65;38.22;;;;;;;9.78;100.00;163122.16;4993203;28;20389;-62
2022/05/20 03:45:47;;;;;;;40.75;36.22;;;;;;;9.80;100.00;163127.50;4991880;28;20043;-62
2022/05/20 03:48:13;;;;;;;50.08;39.50;;;;;;;9.81;100.00;163128.88;4993418;28;20026;-62
2022/05/20 03:50:39;;;;;;;47.80;39.67;;;;;;;9.86;100.00;163141.03;4989393;28;20057;-62
2022/05/20 03:53:04;;;;;;;130.32;33.30;;;;;;;9.87;100.00;163145.06;4993288;28;20034;-62
2022/05/20 03:55:30;;;;;;;135.98;31.33;;;;;;;9.68;100.00;163095.16;4975065;28;20033;-62
2022/05/20 03:57:55;;;;;;;36.28;32.53;;;;;;;9.82;100.00;163132.94;4973233;28;20038;-62
2022/05/20 04:00:21;;;;;;;39.00;34.95;;;;;;;9.87;100.00;163143.69;4972334;28;20386;-63
2022/05/20 04:02:46;;;;;;;46.45;35.25;;;;;;;9.92;100.00;163157.22;4973556;28;20547;-62
2022/05/20 04:05:12;;;;;;;32.78;29.58;;;;;;;10.00;100.00;163178.81;4971904;28;20043;-63
2022/05/20 04:07:40;;;;;;;33.05;29.50;;;;;;;10.05;100.00;163190.97;4973368;28;20113;-62
2022/05/20 04:10:07;;;;;;;30.65;27.25;;;;;;;10.06;100.00;163195.00;4983445;28;20146;-64
2022/05/20 04:12:35;;;;;;;32.25;29.02;;;;;;;10.04;100.00;163189.59;4989623;28;20041;-59
2022/05/20 04:15:03;;;;;;;32.45;29.02;;;;;;;10.04;100.00;163189.59;4975799;28;20545;-58
2022/05/20 04:17:29;;;;;;;28.67;25.92;;;;;;;10.02;100.00;163182.84;4972783;28;20513;-58
2022/05/20 04:19:54;;;;;;;30.45;27.35;;;;;;;9.96;100.00;163168.00;4972831;28;20027;-58
2022/05/20 04:22:28;;;;;;;35.58;30.52;;;;;;;9.93;100.00;163159.94;4975442;28;20584;-58
2022/05/20 04:24:53;;;;;;;36.35;32.45;;;;;;;9.97;100.00;163170.69;4991705;28;20026;-58
2022/05/20 04:27:19;;;;;;;39.13;32.83;;;;;;;9.84;100.00;163136.97;4989975;28;20038;-58
2022/05/20 04:29:44;;;;;;;35.38;31.60;;;;;;;10.06;100.00;163195.00;4991658;28;20149;-58
2022/05/20 04:32:10;;;;;;;35.45;31.52;;;;;;;10.11;100.00;163207.16;4974487;28;20062;-58
2022/05/20 04:34:35;;;;;;;37.90;33.92;;;;;;;10.20;100.00;163230.06;4972421;28;20034;-59
2022/05/20 04:37:00;;;;;;;41.88;35.67;;;;;;;10.30;100.00;163258.41;4971801;28;20401;-59
2022/05/20 04:39:26;;;;;;;40.53;36.25;;;;;;;10.43;100.00;163292.22;4972365;28;20042;-59
2022/05/20 04:47:26;;;;;;;40.53;36.35;;;;;;;10.94;100.00;163425.88;4971727;28;20046;-59
2022/05/20 04:49:52;;;;;;;42.13;37.65;;;;;;;11.13;100.00;163473.13;4972501;28;20035;-58
2022/05/20 04:52:18;;;;;;;45.00;37.03;;;;;;;11.28;100.00;162637.16;4971278;28;20062;-58
2022/05/20 04:54:49;;;;;;;41.00;36.58;;;;;;;11.38;100.00;161524.94;4972451;28;20027;-58
2022/05/20 04:57:35;;;;;;;42.90;37.78;;;;;;;11.47;100.00;160841.34;4971112;28;20077;-58
2022/05/20 05:00:09;;;;;;;37.47;33.40;;;;;;;11.50;100.00;160977.81;4972891;28;20026;-58
2022/05/20 05:02:35;;;;;;;41.05;36.72;;;;;;;11.56;100.00;161797.03;4970706;28;20043;-59
2022/05/20 05:05:01;;;;;;;37.88;33.90;;;;;;;11.57;100.00;162988.97;4972175;28;20047;-58
2022/05/20 05:07:26;;;;;;;37.75;33.75;;;;;;;11.59;100.00;163594.63;4979310;28;20038;-58
2022/05/20 05:09:53;;;;;;;36.17;32.28;;;;;;;11.56;100.00;163586.53;4991116;28;20385;-59
2022/05/20 05:12:18;;;;;;;40.40;35.05;;;;;;;11.53;100.00;163579.81;4989668;28;20065;-59
2022/05/20 05:14:49;;;;;;;36.53;32.63;;;;;;;11.51;100.00;163573.00;4990959;28;20048;-58
2022/05/20 05:18:09;;;;;;;37.45;33.40;;;;;;;11.47;100.00;163562.22;4988823;28;20613;-59
2022/05/20 05:20:03;;;;;;;36.38;32.78;;;;;;;11.42;100.00;163551.44;4991293;28;20038;-58
2022/05/20 05:22:28;;;;;;;37.28;33.45;;;;;;;11.36;100.00;163535.19;4990086;28;20046;-58
2022/05/20 05:24:54;;;;;;;42.35;37.75;;;;;;;11.34;100.00;163529.84;4991412;28;20410;-58
2022/05/20 05:27:19;;;;;;;48.70;39.20;;;;;;;11.35;100.00;163532.53;4989996;28;20046;-58
2022/05/20 05:29:45;;;;;;;44.53;38.95;;;;;;;11.40;100.00;163546.03;4991410;28;20029;-58
2022/05/20 05:32:10;;;;;;;51.15;41.65;;;;;;;11.46;100.00;163559.50;4989949;28;20043;-59
2022/05/20 05:34:35;;;;;;;48.45;40.80;;;;;;;11.52;100.00;163577.09;4990805;28;20077;-58
2022/05/20 05:37:01;;;;;;;56.85;44.20;;;;;;;11.59;100.00;163594.63;4990149;28;20035;-59
2022/05/20 05:39:26;;;;;;;53.45;42.75;;;;;;;11.72;100.00;163629.78;4991428;28;20022;-58
2022/05/20 05:41:52;;;;;;;49.10;43.72;;;;;;;11.81;100.00;163651.34;4989347;28;20783;-58
2022/05/20 05:44:17;;;;;;;48.45;43.08;;;;;;;11.93;100.00;163682.41;4991452;28;20084;-58
2022/05/20 05:46:42;;;;;;;47.50;40.75;;;;;;;12.05;100.00;163716.25;4989718;28;20041;-58
2022/05/20 05:49:08;;;;;;;52.33;42.20;;;;;;;12.14;100.00;163737.88;4991083;28;20045;-58
2022/05/20 05:51:33;;;;;;;51.17;40.60;;;;;;;12.22;100.00;163759.50;4989338;28;20030;-58
2022/05/20 05:53:59;;;;;;;44.33;36.33;;;;;;;12.30;100.00;163779.75;4991074;28;20041;-61
2022/05/20 05:56:24;;;;;;;42.85;37.75;;;;;;;12.38;100.00;163802.75;4989438;28;20034;-57
2022/05/20 05:58:49;;;;;;;53.90;42.00;;;;;;;12.46;100.00;163821.66;4990666;28;20389;-57
2022/05/20 06:01:15;;;;;;;45.10;38.83;;;;;;;12.53;100.00;163840.59;4989181;28;20069;-57
2022/05/20 06:03:40;;;;;;;45.78;38.75;;;;;;;12.62;100.00;163864.88;4990485;28;20027;-57
2022/05/20 06:06:06;;;;;;;46.60;37.40;;;;;;;12.78;100.00;163906.81;4989485;28;20087;-57
2022/05/20 06:08:31;;;;;;;39.35;35.08;;;;;;;12.84;100.00;163921.69;4991050;28;20121;-57
2022/05/20 06:10:57;;;;;;;43.15;37.83;;;;;;;12.93;100.00;163945.97;4989003;28;20042;-57
2022/05/20 06:13:29;;;;;;;42.30;37.17;;;;;;;13.09;100.00;163986.53;4990125;28;20532;-62
2022/05/20 06:15:58;;;;;;;42.85;37.03;;;;;;;13.17;100.00;164008.19;4989106;28;20036;-62
2022/05/20 06:18:24;;;;;;;;;;;;;;;13.26;100.00;164032.53;4989503;28;20027;-62
2022/05/20 06:20:49;;;;;;;39.45;35.22;;;;;;;13.40;100.00;164069.09;4988567;28;19925;-62
2022/05/20 06:23:15;;;;;;;42.60;37.42;;;;;;;13.48;100.00;164090.69;4989079;28;20045;-61
2022/05/20 06:25:41;;;;;;;45.90;37.30;;;;;;;13.43;100.00;164075.84;4988344;28;20045;-62
2022/05/20 06:28:10;;;;;;;45.03;36.95;;;;;;;13.79;100.00;164170.50;4989111;28;20026;-62
2022/05/20 06:30:36;;;;;;;48.22;36.78;;;;;;;13.74;100.00;164156.94;4989014;28;20045;-61
2022/05/20 06:33:02;;;;;;;40.80;34.53;;;;;;;13.82;100.00;164178.59;4990216;28;20019;-61
2022/05/20 06:41:08;;;;;;;44.45;35.50;;;;;;;14.98;100.00;164483.06;4987983;28;20049;-61
2022/05/20 06:43:34;;;;;;;40.88;31.88;;;;;;;15.30;100.00;164565.66;4989773;28;20774;-62
2022/05/20 06:46:01;;;;;;;38.25;30.70;;;;;;;15.52;100.00;164625.22;4995114;28;20045;-61
2022/05/20 06:48:37;;;;;;;44.70;31.80;;;;;;;15.75;100.00;164683.41;5009255;28;20029;-62
2022/05/20 06:51:07;;;;;;;33.80;28.75;;;;;;;15.75;100.00;164684.75;5006726;28;20042;-62
2022/05/20 06:53:32;;;;;;;39.47;33.40;;;;;;;15.66;100.00;164660.41;5010023;28;20046;-61
2022/05/20 06:55:58;;;;;;;31.83;28.58;;;;;;;15.62;100.00;164649.53;5008455;28;20119;-61
2022/05/20 06:58:23;;;;;;;37.33;31.55;;;;;;;15.74;100.00;164682.06;5010352;28;20378;-61
2022/05/20 07:00:48;;;;;;;29.30;26.42;;;;;;;15.75;100.00;164684.75;5008510;28;20033;-62
2022/05/20 07:03:14;;;;;;;33.05;29.48;;;;;;;15.68;100.00;164665.78;5010820;28;20040;-62
2022/05/20 07:05:39;;;;;;;38.45;30.05;;;;;;;15.80;100.00;164698.31;4992866;28;20042;-62
2022/05/20 07:08:05;;;;;;;32.85;29.52;;;;;;;15.74;100.00;164682.06;4974032;28;20528;-61
2022/05/20 07:10:30;;;;;;;29.75;26.17;;;;;;;15.66;100.00;164660.41;4974972;28;20026;-61
2022/05/20 07:12:56;;;;;;;33.60;24.88;;;;;;;15.98;100.00;164744.38;4993560;28;20072;-61
2022/05/20 07:15:21;;;;;;;32.38;28.92;;;;;;;15.85;100.00;164711.88;4991907;28;20026;-62
2022/05/20 07:17:47;;;;;;;29.00;25.08;;;;;;;15.99;100.00;164747.09;4993331;28;20026;-61
2022/05/20 07:20:13;;;;;;;29.38;25.30;;;;;;;16.07;100.00;164768.75;4992704;28;20034;-61
2022/05/20 07:22:38;;;;;;;28.05;24.30;;;;;;;15.81;100.00;164699.66;4993287;28;20101;-61
2022/05/20 07:25:04;;;;;;;31.13;25.30;;;;;;;16.10;100.00;164775.53;4993382;28;20493;-61
2022/05/20 07:27:30;;;;;;;24.92;22.15;;;;;;;16.21;100.00;164805.34;4992378;28;20042;-61
2022/05/20 07:29:55;;;;;;;28.63;25.33;;;;;;;16.33;100.00;164836.50;4992069;28;20557;-61
2022/05/20 07:32:22;;;;;;;24.13;20.92;;;;;;;16.55;100.00;164894.72;4991170;28;20121;-61
2022/05/20 07:34:48;;;;;;;30.08;22.95;;;;;;;16.72;100.00;164939.41;4993288;28;20030;-61
2022/05/20 07:37:13;;;;;;;26.10;22.52;;;;;;;16.90;100.00;164986.81;4991907;28;20038;-61
2022/05/20 07:39:38;;;;;;;25.60;22.27;;;;;;;17.07;100.00;165031.63;4991920;28;20029;-61
2022/05/20 07:42:04;;;;;;;26.38;23.80;;;;;;;17.09;100.00;165037.00;4991013;28;20054;-61
2022/05/20 07:44:30;;;;;;;24.95;21.38;;;;;;;17.29;100.00;165088.53;4992747;28;20030;-61
2022/05/20 07:46:55;;;;;;;26.08;18.88;;;;;;;17.37;100.00;165110.22;4992692;28;20096;-61
2022/05/20 07:49:20;;;;;;;22.75;20.33;;;;;;;17.74;100.00;165206.44;4993500;28;20051;-61
2022/05/20 07:51:50;;;;;;;19.67;17.27;;;;;;;17.83;100.00;165230.84;4991760;28;20034;-62
2022/05/20 07:54:22;;;;;;;20.88;16.17;;;;;;;17.74;100.00;165207.81;4990000;28;20052;-62
2022/05/20 07:56:55;;;;;;;21.83;19.40;;;;;;;17.94;100.00;165257.97;4991576;28;20047;-62
2022/05/20 07:59:46;;;;;;;22.38;17.08;;;;;;;17.63;100.00;165177.97;4993027;28;20022;-62
2022/05/20 08:02:13;;;;;;;21.70;16.67;;;;;;;17.90;100.00;165248.47;4987840;28;20046;-62
2022/05/20 08:04:53;;;;;;;22.85;17.45;;;;;;;18.04;100.00;165286.50;4992600;28;20103;-61
2022/05/20 08:07:20;;;;;;;16.45;14.10;;;;;;;18.27;100.00;165346.16;4991337;28;20061;-62
2022/05/20 08:09:46;;;;;;;16.95;14.55;;;;;;;18.35;100.00;165367.84;4992286;28;20027;-62
2022/05/20 08:12:12;;;;;;;16.55;14.55;;;;;;;18.90;100.00;165511.56;4991479;28;20035;-62
2022/05/20 08:14:37;;;;;;;22.92;15.18;;;;;;;19.64;100.00;165706.97;4992217;28;20493;-62
2022/05/20 08:17:03;;;;;;;17.13;14.30;;;;;;;20.18;100.00;165846.84;4988043;28;20469;-62
2022/05/20 08:19:30;;;;;;;14.43;12.45;;;;;;;20.92;100.00;166043.69;4992970;28;20027;-62
2022/05/20 08:21:55;;;;;;;17.92;13.10;;;;;;;21.18;100.00;166111.63;4990801;28;20497;-62
2022/05/20 08:24:21;;;;;;;16.02;12.55;;;;;;;20.80;100.00;166011.13;4991699;28;20036;-62
2022/05/20 08:26:46;;;;;;;14.00;10.48;;;;;;;20.41;100.00;165909.22;4988134;28;20038;-62
2022/05/20 08:29:12;;;;;;;16.65;11.68;;;;;;;20.28;100.00;165875.34;4992503;28;20026;-62
2022/05/20 08:31:38;;;;;;;14.95;13.45;;;;;;;20.48;100.00;165926.91;5005469;28;20035;-61
2022/05/20 08:34:04;;;;;;;15.75;14.25;;;;;;;20.43;100.00;165913.34;4992396;28;20548;-62
2022/05/20 08:36:30;;;;;;;16.17;13.50;;;;;;;20.37;100.00;165897.00;4990715;28;20111;-62
2022/05/20 08:38:56;;;;;;;16.67;12.95;;;;;;;20.28;100.00;165873.94;4991861;28;20073;-61
2022/05/20 08:41:36;;;;;;;14.10;11.88;;;;;;;20.46;100.00;165921.44;4990981;28;20070;-62
2022/05/20 08:44:04;;;;;;;13.77;12.27;;;;;;;20.66;100.00;165973.06;4991950;28;20541;-62
2022/05/20 08:46:29;;;;;;;12.88;10.40;;;;;;;20.77;100.00;166002.97;4990404;28;20046;-62
2022/05/20 08:48:57;;;;;;;11.80;10.07;;;;;;;20.77;100.00;166002.97;4979107;28;20053;-62
2022/05/20 08:51:28;;;;;;;13.40;12.00;;;;;;;20.92;100.00;166043.69;4971511;28;20046;-61
2022/05/20 08:53:53;;;;;;;11.02;9.95;;;;;;;20.80;100.00;166011.13;4972151;28;20118;-61
2022/05/20 08:56:24;;;;;;;14.65;8.90;;;;;;;19.88;100.00;165769.44;4971100;28;20042;-61
2022/05/20 08:58:53;;;;;;;13.15;7.75;;;;;;;20.01;100.00;165803.38;4972512;28;20026;-59
2022/05/20 09:01:26;;;;;;;12.15;7.57;;;;;;;20.01;100.00;165802.00;4970850;28;20058;-63
2022/05/20 09:03:52;;;;;;;11.25;8.35;;;;;;;20.19;100.00;165850.88;4985233;28;20490;-61
2022/05/20 09:06:17;;;;;;;10.77;5.85;;;;;;;20.21;100.00;165854.94;4990173;28;20038;-62
2022/05/20 09:08:44;;;;;;;9.52;5.35;;;;;;;20.53;100.00;165940.44;4990390;28;20033;-62
2022/05/20 09:11:15;;;;;;;9.52;6.40;;;;;;;20.91;100.00;166039.63;4990090;28;20470;-61
2022/05/20 09:16:38;;;;;;;;;;;;;;;21.33;100.00;166149.63;4980652;28;20461;-62
2022/05/20 09:19:09;;;;;;;9.52;6.63;;;;;;;21.67;100.00;166240.66;4989659;28;19913;-62
2022/05/20 09:21:38;;;;;;;14.35;6.82;;;;;;;22.02;100.00;166331.66;4989074;28;20038;-62
2022/05/20 09:24:20;;;;;;;13.88;7.43;;;;;;;22.11;100.00;166356.13;4990321;28;20041;-62
2022/05/20 09:27:06;;;;;;;7.80;5.43;;;;;;;22.19;100.00;166376.50;4989404;28;20053;-62
2022/05/20 09:29:45;;;;;;;6.03;5.28;;;;;;;22.23;100.00;166386.06;4973631;28;20375;-62
2022/05/20 09:32:25;;;;;;;5.75;5.15;;;;;;;22.12;100.00;166358.84;4989877;28;20113;-62
2022/05/20 09:34:57;;;;;;;5.38;4.32;;;;;;;21.93;100.00;166307.25;4991210;28;20026;-61
2022/05/20 09:37:27;;;;;;;6.70;4.32;;;;;;;21.93;100.00;166307.25;4983486;28;20399;-63
2022/05/20 09:39:52;;;;;;;7.38;4.93;;;;;;;22.03;100.00;166334.38;4970622;28;20038;-63
2022/05/20 09:42:27;;;;;;;6.88;4.78;;;;;;;21.95;100.00;166312.66;4970306;28;20070;-64
2022/05/20 09:44:58;;;;;;;6.28;5.28;;;;;;;21.95;100.00;166314.03;4970099;28;20029;-64
2022/05/20 09:47:50;;;;;;;11.32;6.75;;;;;;;21.79;100.00;166271.91;4970484;28;20050;-64
2022/05/20 09:50:37;;;;;;;5.75;4.05;;;;;;;21.71;100.00;166250.16;4970589;28;20030;-64
2022/05/20 09:53:15;;;;;;;7.83;5.50;;;;;;;21.73;100.00;166255.59;4970074;28;20070;-64
2022/05/20 09:55:41;;;;;;;;;;;;;;;21.69;100.00;166244.75;4972110;28;20034;-64
2022/05/20 09:58:27;;;;;;;6.13;4.20;;;;;;;21.58;100.00;166214.84;4972119;28;19918;-64
2022/05/20 10:01:04;;;;;;;10.55;6.22;;;;;;;21.44;100.00;166178.16;4990368;28;20392;-64
2022/05/20 10:03:43;;;;;;;7.90;5.85;;;;;;;21.46;100.00;166184.94;4970579;28;20140;-64
2022/05/20 10:06:21;;;;;;;9.00;6.45;;;;;;;21.60;100.00;166220.28;4984478;28;20037;-64
2022/05/20 10:09:20;;;;;;;10.50;6.32;;;;;;;21.96;100.00;166316.75;4986471;28;20045;-64
2022/05/20 10:11:55;;;;;;;16.45;7.47;;;;;;;22.11;100.00;166356.13;4985498;28;20037;-64
2022/05/20 10:14:27;;;;;;;10.00;5.97;;;;;;;22.25;100.00;166392.84;4989463;28;20061;-59
2022/05/20 10:17:06;;;;;;;10.32;7.07;;;;;;;22.25;100.00;166391.44;4988928;28;20039;-59
2022/05/20 10:19:52;;;;;;;8.68;7.15;;;;;;;22.43;100.00;166440.44;4972506;28;20042;-59
2022/05/20 10:22:26;;;;;;;11.35;7.15;;;;;;;22.38;100.00;166426.75;4973127;28;20196;-58
2022/05/20 10:25:01;;;;;;;9.80;7.22;;;;;;;22.53;100.00;166464.88;4976594;28;20034;-58
2022/05/20 10:27:37;;;;;;;9.00;7.18;;;;;;;22.75;100.00;166524.66;4988132;28;20053;-59
2022/05/20 10:33:05;;;;;;;12.32;6.47;;;;;;;22.49;100.00;166456.75;4962237;28;20054;-58
2022/05/20 10:35:58;;;;;;;10.35;6.40;;;;;;;22.00;100.00;166326.28;4968783;28;20053;-58
2022/05/20 10:38:51;;;;;;;8.82;5.60;;;;;;;22.00;100.00;166326.28;4991323;28;20026;-58
2022/05/20 10:41:38;;;;;;;9.95;7.00;;;;;;;22.30;100.00;166405.06;4990565;28;20066;-59
2022/05/20 10:50:31;;;;;;;12.85;8.88;;;;;;;22.89;100.00;166561.38;4993317;28;20045;-58
2022/05/20 10:53:00;;;;;;;10.25;9.10;;;;;;;22.72;100.00;166516.53;4993924;28;20042;-58
2022/05/20 10:55:36;;;;;;;10.68;8.20;;;;;;;23.11;100.00;166619.84;4977081;28;20058;-58
2022/05/20 10:58:20;;;;;;;9.10;6.93;;;;;;;23.06;100.00;166604.88;4986330;28;20033;-59
2022/05/20 11:00:52;;;;;;;8.50;7.32;;;;;;;23.00;100.00;166589.91;4990512;28;20054;-58
2022/05/20 11:03:38;;;;;;;8.13;6.53;;;;;;;23.31;100.00;166670.19;4986775;28;20023;-59
2022/05/20 11:06:22;;;;;;;9.23;6.45;;;;;;;23.60;100.00;166747.66;4989488;28;20437;-59
2022/05/20 11:09:07;;;;;;;8.13;7.32;;;;;;;23.95;100.00;166840.16;4994028;28;20196;-59
2022/05/20 11:11:56;;;;;;;7.30;5.93;;;;;;;23.63;100.00;166755.84;4990117;28;20205;-59
2022/05/20 11:14:46;;;;;;;9.07;6.63;;;;;;;23.29;100.00;166667.47;4987563;28;20030;-58
2022/05/20 11:17:44;;;;;;;7.93;7.00;;;;;;;23.79;100.00;166796.63;4973267;28;20074;-58
2022/05/20 11:20:30;;;;;;;10.65;8.13;;;;;;;24.03;100.00;166860.59;4972983;28;20033;-59
2022/05/20 11:23:18;;;;;;;15.63;7.40;;;;;;;24.23;100.00;166914.97;4974331;28;20054;-59
2022/05/20 11:26:21;;;;;;;11.45;5.97;;;;;;;23.85;100.00;166812.94;4973662;28;20054;-59
2022/05/20 11:29:10;;;;;;;7.93;6.18;;;;;;;24.32;100.00;166938.06;4989397;28;20049;-59
2022/05/20 11:32:02;;;;;;;7.82;7.03;;;;;;;24.11;100.00;166880.97;4984815;28;20446;-59
2022/05/20 11:34:33;;;;;;;11.00;7.50;;;;;;;23.86;100.00;166817.00;4991162;28;20026;-59
2022/05/20 11:37:47;;;;;;;13.48;7.30;;;;;;;24.01;100.00;166856.53;4990711;28;20185;-59
2022/05/20 11:40:24;;;;;;;15.50;7.78;;;;;;;23.47;100.00;166712.31;4983917;28;20389;-59
2022/05/20 11:43:11;;;;;;;9.83;8.83;;;;;;;23.74;100.00;166785.72;4989460;28;20092;-59
2022/05/20 11:46:11;;;;;;;12.18;7.80;;;;;;;23.72;100.00;166780.28;4989208;28;20461;-59
2022/05/20 11:49:02;;;;;;;9.82;8.73;;;;;;;23.63;100.00;166755.84;4989502;28;20037;-59
2022/05/20 11:51:37;;;;;;;15.68;8.52;;;;;;;23.69;100.00;166770.75;4986829;28;20042;-59
2022/05/20 11:54:02;;;;;;;9.50;8.02;;;;;;;23.76;100.00;166791.19;4992248;28;20031;-59